Time;durP1;ratioP1;P1;durP2;ratioP2;P2;SDS_P1;SDS_P2;PMS_P1;PMS_P2;Temp;Humidity;BMP_temperature;BMP_pressure;BME280_temperature;BME280_humidity;BME280_pressure;Samples;Min_cycle;Max_cycle;Signal;HPM_P1;HPM_P2
2022/01/09 00:00:55;;;;;;;15.38;10.63;;;4.30;99.90;;;;;;4988036;28;20036;-83
2022/01/09 00:03:21;;;;;;;17.50;11.57;;;4.30;99.90;;;;;;4979095;28;20077;-84
2022/01/09 00:05:47;;;;;;;17.60;12.52;;;4.30;99.90;;;;;;5014427;28;20038;-84
2022/01/09 00:08:12;;;;;;;17.52;12.30;;;4.40;99.90;;;;;;4998381;28;20026;-84
2022/01/09 00:10:45;;;;;;;16.55;12.25;;;4.40;99.90;;;;;;4994042;28;20026;-84
2022/01/09 00:13:11;;;;;;;16.13;11.77;;;4.40;99.90;;;;;;5012300;28;20108;-85
2022/01/09 00:15:36;;;;;;;17.60;12.52;;;4.30;99.90;;;;;;4992864;28;20034;-84
2022/01/09 00:18:02;;;;;;;15.38;11.50;;;4.40;99.90;;;;;;5011054;28;20022;-84
2022/01/09 00:20:28;;;;;;;16.70;11.70;;;4.40;99.90;;;;;;4996884;28;20034;-84
2022/01/09 00:22:54;;;;;;;17.98;11.43;;;4.40;99.90;;;;;;4983504;28;20054;-85
2022/01/09 00:25:22;;;;;;;16.17;11.38;;;4.40;99.90;;;;;;5019265;28;20056;-82
2022/01/09 00:27:50;;;;;;;15.23;11.10;;;4.40;99.90;;;;;;5017817;28;20060;-84
2022/01/09 00:30:18;;;;;;;16.20;11.80;;;4.40;99.90;;;;;;4998177;28;20031;-84
2022/01/09 00:32:43;;;;;;;18.90;12.07;;;4.40;99.90;;;;;;4991940;28;20386;-84
2022/01/09 00:35:10;;;;;;;17.30;12.00;;;4.40;99.90;;;;;;5009733;28;20038;-83
2022/01/09 00:37:36;;;;;;;14.20;11.45;;;4.40;99.90;;;;;;5018871;28;20049;-85
2022/01/09 00:40:03;;;;;;;15.27;11.57;;;4.40;99.90;;;;;;5015280;28;20022;-84
2022/01/09 00:42:29;;;;;;;17.50;12.43;;;4.40;99.90;;;;;;5004531;28;20026;-84
2022/01/09 00:44:55;;;;;;;16.88;12.13;;;4.40;99.90;;;;;;4994421;28;20032;-84
2022/01/09 00:47:20;;;;;;;15.27;11.38;;;4.40;99.90;;;;;;4995755;28;20501;-84
2022/01/09 00:49:46;;;;;;;17.38;11.98;;;4.40;99.90;;;;;;4996258;28;20402;-83
2022/01/09 00:52:12;;;;;;;19.73;12.38;;;4.40;99.90;;;;;;4980945;28;20089;-84
2022/01/09 00:54:37;;;;;;;16.45;12.32;;;4.40;99.90;;;;;;5014607;28;20034;-84
2022/01/09 00:57:03;;;;;;;17.55;12.02;;;4.40;99.90;;;;;;4995089;28;20018;-84
2022/01/09 00:59:29;;;;;;;17.52;11.98;;;4.40;99.90;;;;;;4963607;28;20038;-83
2022/01/09 01:01:55;;;;;;;17.45;12.10;;;4.40;99.90;;;;;;4965955;28;20102;-84
2022/01/09 01:04:21;;;;;;;17.85;11.90;;;4.40;99.90;;;;;;5005543;28;20042;-84
2022/01/09 01:06:49;;;;;;;19.95;14.00;;;4.40;99.90;;;;;;4989925;28;20025;-84
2022/01/09 01:09:20;;;;;;;21.55;14.13;;;4.40;99.90;;;;;;4995376;28;20049;-84
2022/01/09 01:11:46;;;;;;;22.08;15.35;;;4.40;99.90;;;;;;5013948;28;20034;-84
2022/01/09 01:14:12;;;;;;;21.10;15.25;;;4.40;99.90;;;;;;5003388;28;20042;-85
2022/01/09 01:16:39;;;;;;;19.35;13.68;;;4.40;99.90;;;;;;5014711;28;20104;-83
2022/01/09 01:19:06;;;;;;;19.73;13.98;;;4.40;99.90;;;;;;5006377;28;20019;-84
2022/01/09 01:21:32;;;;;;;22.90;14.35;;;4.40;99.90;;;;;;4978915;28;20037;-84
2022/01/09 01:23:58;;;;;;;21.55;13.50;;;4.40;99.90;;;;;;5018227;28;20038;-84
2022/01/09 01:26:23;;;;;;;20.83;13.40;;;4.50;99.90;;;;;;5014664;28;20096;-85
2022/01/09 01:28:49;;;;;;;18.17;13.40;;;4.40;99.90;;;;;;5008951;28;20178;-84
2022/01/09 01:31:15;;;;;;;20.85;13.57;;;4.50;99.90;;;;;;5013346;28;20026;-85
2022/01/09 01:33:41;;;;;;;19.15;13.10;;;4.40;99.90;;;;;;4997875;28;20109;-84
2022/01/09 01:36:06;;;;;;;19.17;12.32;;;4.50;99.90;;;;;;4979303;28;20478;-84
2022/01/09 01:38:33;;;;;;;19.42;13.00;;;4.50;99.90;;;;;;5014946;28;20030;-85
2022/01/09 01:40:58;;;;;;;19.40;12.23;;;4.50;99.90;;;;;;4990880;28;20019;-81
2022/01/09 01:43:25;;;;;;;17.77;11.65;;;4.50;99.90;;;;;;4994904;28;20517;-81
2022/01/09 01:45:51;;;;;;;18.85;12.10;;;4.50;99.90;;;;;;4978885;28;20041;-81
2022/01/09 01:48:17;;;;;;;17.40;10.90;;;4.50;99.90;;;;;;4981235;28;20026;-82
2022/01/09 01:50:43;;;;;;;15.35;10.30;;;4.50;99.90;;;;;;4987293;28;20041;-81
2022/01/09 01:53:14;;;;;;;15.85;10.50;;;4.60;99.90;;;;;;5009210;28;20806;-82
2022/01/09 01:55:41;;;;;;;15.55;9.70;;;4.60;99.90;;;;;;5014360;28;20030;-82
2022/01/09 01:58:11;;;;;;;14.32;9.32;;;4.70;99.90;;;;;;4995789;28;20031;-82
2022/01/09 02:00:41;;;;;;;15.48;9.77;;;4.60;99.90;;;;;;4997894;28;20066;-84
2022/01/09 02:03:08;;;;;;;17.73;10.45;;;4.70;99.90;;;;;;4994301;28;20405;-84
2022/01/09 02:05:33;;;;;;;14.23;9.35;;;4.70;99.90;;;;;;5014638;28;20103;-85
2022/01/09 02:08:02;;;;;;;14.73;9.20;;;4.70;99.90;;;;;;4994102;28;20053;-85
2022/01/09 02:10:28;;;;;;;14.80;9.77;;;4.70;99.90;;;;;;5004298;28;20030;-86
2022/01/09 02:12:56;;;;;;;15.43;9.57;;;4.70;99.90;;;;;;4992617;28;20050;-85
2022/01/09 02:15:33;;;;;;;16.20;9.45;;;4.70;99.90;;;;;;5003094;28;20040;-85
2022/01/09 02:18:06;;;;;;;14.07;9.05;;;4.70;99.90;;;;;;4996931;28;20030;-86
2022/01/09 02:20:32;;;;;;;13.98;9.25;;;4.70;99.90;;;;;;4996517;28;20041;-86
2022/01/09 02:22:58;;;;;;;16.52;9.55;;;4.70;99.90;;;;;;4994677;28;20045;-86
2022/01/09 02:25:24;;;;;;;14.90;8.93;;;4.70;99.90;;;;;;4994975;28;20030;-83
2022/01/09 02:27:50;;;;;;;16.50;9.27;;;4.70;99.90;;;;;;4992373;28;20026;-84
2022/01/09 02:30:16;;;;;;;15.10;8.88;;;4.80;99.90;;;;;;5009097;28;20041;-85
2022/01/09 02:32:42;;;;;;;13.60;8.65;;;4.70;99.90;;;;;;5001295;28;20034;-84
2022/01/09 02:35:07;;;;;;;14.38;8.88;;;4.80;99.90;;;;;;4984747;28;20423;-85
2022/01/09 02:37:33;;;;;;;13.73;8.13;;;4.80;99.90;;;;;;4985306;28;20116;-84
2022/01/09 02:39:59;;;;;;;15.18;7.75;;;4.80;99.90;;;;;;4995939;28;20098;-84
2022/01/09 02:42:28;;;;;;;15.02;7.25;;;4.90;99.90;;;;;;4994109;28;20026;-84
2022/01/09 02:44:57;;;;;;;14.40;7.93;;;4.90;99.90;;;;;;4994701;28;20030;-84
2022/01/09 02:47:25;;;;;;;12.52;6.93;;;5.00;99.90;;;;;;5012973;28;20073;-85
2022/01/09 02:49:53;;;;;;;14.10;7.00;;;5.00;99.90;;;;;;4992423;28;20043;-85
2022/01/09 02:57:40;;;;;;;15.07;5.70;;;5.10;99.90;;;;;;4990556;28;20074;-85
2022/01/09 03:00:09;;;;;;;17.48;5.32;;;5.10;99.90;;;;;;4983176;28;20022;-83
2022/01/09 03:02:35;;;;;;;16.63;5.00;;;5.20;99.90;;;;;;4994989;28;20032;-85
2022/01/09 03:05:00;;;;;;;15.52;5.00;;;5.20;99.90;;;;;;4992640;28;20109;-85
2022/01/09 03:07:26;;;;;;;26.02;4.88;;;5.20;99.90;;;;;;4990175;28;20478;-85
2022/01/09 03:09:52;;;;;;;14.70;4.50;;;5.30;99.90;;;;;;5006837;28;20058;-85
2022/01/09 03:12:17;;;;;;;22.48;4.25;;;5.30;99.90;;;;;;4991146;28;20058;-85
2022/01/09 03:14:43;;;;;;;15.95;3.60;;;5.30;99.90;;;;;;4993675;28;20486;-83
2022/01/09 03:17:09;;;;;;;24.50;4.50;;;5.40;99.90;;;;;;4997014;28;20056;-85
2022/01/09 03:19:34;;;;;;;20.20;4.55;;;5.50;99.90;;;;;;5003005;28;20050;-86
2022/01/09 03:22:00;;;;;;;26.27;5.13;;;5.50;99.90;;;;;;4992895;28;20053;-85
2022/01/09 03:24:25;;;;;;;25.88;5.45;;;5.50;99.90;;;;;;4967557;28;20039;-84
2022/01/09 03:26:51;;;;;;;27.88;5.43;;;5.50;99.90;;;;;;4991586;28;20061;-84
2022/01/09 03:29:17;;;;;;;29.60;5.93;;;5.60;99.90;;;;;;5000285;28;20038;-85
2022/01/09 03:31:42;;;;;;;32.25;5.57;;;5.60;99.90;;;;;;4994903;28;20030;-85
2022/01/09 03:34:08;;;;;;;28.13;5.80;;;5.60;99.90;;;;;;4970074;28;20042;-86
2022/01/09 03:36:34;;;;;;;37.00;6.40;;;5.60;99.90;;;;;;5007580;28;20026;-85
2022/01/09 03:38:59;;;;;;;31.95;6.03;;;5.70;99.90;;;;;;4993691;28;20418;-85
2022/01/09 03:41:26;;;;;;;40.97;6.13;;;5.70;99.90;;;;;;5008469;28;20683;-85
2022/01/09 03:43:52;;;;;;;32.53;6.50;;;5.70;99.90;;;;;;5006672;28;20043;-85
2022/01/09 03:46:18;;;;;;;40.88;6.47;;;5.70;99.90;;;;;;4993982;28;20033;-85
2022/01/09 03:48:43;;;;;;;37.63;6.03;;;5.70;99.90;;;;;;4994415;28;20490;-83
2022/01/09 03:51:10;;;;;;;37.47;6.68;;;5.80;99.90;;;;;;4987443;28;20027;-84
2022/01/09 03:53:37;;;;;;;38.25;6.85;;;5.80;99.90;;;;;;4997326;28;20038;-85
2022/01/09 03:56:03;;;;;;;45.67;7.32;;;5.80;99.90;;;;;;4995331;28;20113;-84
2022/01/09 03:58:29;;;;;;;37.67;6.82;;;5.80;99.90;;;;;;4990674;28;20038;-84
2022/01/09 04:00:55;;;;;;;36.08;7.10;;;5.70;99.90;;;;;;4994663;28;20030;-83
2022/01/09 04:03:20;;;;;;;35.58;6.20;;;5.80;99.90;;;;;;4976957;28;20034;-84
2022/01/09 04:05:46;;;;;;;35.38;5.93;;;5.70;99.90;;;;;;4990958;28;20098;-84
2022/01/09 04:08:12;;;;;;;37.05;6.82;;;5.80;99.90;;;;;;4989469;28;20097;-85
2022/01/09 04:10:41;;;;;;;40.42;6.38;;;5.80;99.90;;;;;;4998123;28;20027;-84
2022/01/09 04:13:10;;;;;;;40.58;6.97;;;5.70;99.90;;;;;;5008412;28;20407;-84
2022/01/09 04:15:35;;;;;;;35.40;6.00;;;5.70;99.90;;;;;;5003030;28;20027;-84
2022/01/09 04:18:02;;;;;;;38.90;6.15;;;5.70;99.90;;;;;;4999208;28;20041;-83
2022/01/09 04:20:30;;;;;;;31.35;6.13;;;5.70;99.90;;;;;;5012257;28;20026;-84
2022/01/09 04:22:57;;;;;;;44.60;7.15;;;5.70;99.90;;;;;;4998633;28;21546;-84
2022/01/09 04:25:23;;;;;;;39.90;6.53;;;5.70;99.90;;;;;;5017439;28;20042;-84
2022/01/09 04:27:50;;;;;;;32.70;5.47;;;5.70;99.90;;;;;;5018164;28;20040;-84
2022/01/09 04:30:16;;;;;;;33.42;4.95;;;5.80;99.90;;;;;;4997976;28;20068;-84
2022/01/09 04:32:42;;;;;;;33.22;5.55;;;5.70;99.90;;;;;;5010422;28;20260;-84
2022/01/09 04:35:09;;;;;;;39.75;6.32;;;5.70;99.90;;;;;;5015021;28;20099;-84
2022/01/09 04:37:36;;;;;;;35.33;5.75;;;5.70;99.90;;;;;;5014393;28;20413;-84
2022/01/09 04:40:04;;;;;;;31.88;4.75;;;5.80;99.90;;;;;;4994350;28;20026;-85
2022/01/09 04:42:43;;;;;;;39.78;5.72;;;5.80;99.90;;;;;;4978246;28;20260;-85
2022/01/09 04:45:11;;;;;;;29.98;5.75;;;5.80;99.90;;;;;;4995368;28;20026;-84
2022/01/09 04:47:39;;;;;;;35.38;5.28;;;5.70;99.90;;;;;;5014308;28;20041;-85
2022/01/09 04:50:06;;;;;;;30.55;4.63;;;5.70;99.90;;;;;;5013849;28;20038;-85
2022/01/09 04:52:36;;;;;;;25.90;5.10;;;5.70;99.90;;;;;;4992199;28;20030;-85
2022/01/09 04:55:02;;;;;;;35.28;5.25;;;5.70;99.90;;;;;;4992455;28;20084;-85
2022/01/09 04:57:27;;;;;;;32.28;6.55;;;5.70;99.90;;;;;;5016758;28;20026;-85
2022/01/09 04:59:53;;;;;;;24.30;4.30;;;5.80;99.90;;;;;;4999668;28;20076;-84
2022/01/09 05:02:18;;;;;;;21.05;4.40;;;5.80;99.90;;;;;;5000064;28;20022;-84
2022/01/09 05:04:44;;;;;;;33.85;4.88;;;5.70;99.90;;;;;;5000215;28;20168;-85
2022/01/09 05:07:10;;;;;;;27.35;5.15;;;5.70;99.90;;;;;;4992981;28;20072;-87
2022/01/09 05:09:35;;;;;;;30.10;5.68;;;5.60;99.90;;;;;;4992357;28;20041;-86
2022/01/09 05:12:01;;;;;;;27.40;4.70;;;5.70;99.90;;;;;;4979241;28;20042;-86
2022/01/09 05:14:27;;;;;;;32.10;5.00;;;5.60;99.90;;;;;;5014440;28;20053;-84
2022/01/09 05:16:53;;;;;;;37.67;4.82;;;5.60;99.90;;;;;;5008282;28;20036;-84
2022/01/09 05:19:21;;;;;;;28.38;4.60;;;5.60;99.90;;;;;;4993068;28;20022;-85
2022/01/09 05:21:48;;;;;;;27.55;4.85;;;5.60;99.90;;;;;;4993987;28;20037;-86
2022/01/09 05:24:15;;;;;;;31.35;4.40;;;5.60;99.90;;;;;;4976666;28;20042;-85
2022/01/09 05:26:41;;;;;;;22.85;3.70;;;5.50;99.90;;;;;;4993095;28;20032;-85
2022/01/09 05:29:07;;;;;;;21.55;4.28;;;5.50;99.90;;;;;;5012058;28;20085;-85
2022/01/09 05:31:32;;;;;;;18.23;4.50;;;5.50;99.90;;;;;;4998483;28;20496;-83
2022/01/09 05:33:58;;;;;;;23.52;4.05;;;5.50;99.90;;;;;;4999556;28;20061;-85
2022/01/09 05:36:24;;;;;;;23.38;3.90;;;5.50;99.90;;;;;;5006924;28;20030;-86
2022/01/09 05:38:49;;;;;;;17.52;3.53;;;5.50;99.90;;;;;;5017536;28;20038;-85
2022/01/09 05:41:15;;;;;;;17.10;3.03;;;5.40;99.90;;;;;;5016889;28;20132;-85
2022/01/09 05:43:41;;;;;;;26.67;4.18;;;5.40;99.90;;;;;;5017298;28;20065;-85
2022/01/09 05:46:07;;;;;;;25.17;3.78;;;5.40;99.90;;;;;;4998803;28;20033;-85
2022/01/09 05:48:32;;;;;;;23.58;4.40;;;5.30;99.90;;;;;;4995732;28;20030;-86
2022/01/09 05:50:58;;;;;;;31.02;4.20;;;5.40;99.90;;;;;;4988520;28;20057;-84
2022/01/09 05:53:24;;;;;;;28.10;4.50;;;5.40;99.90;;;;;;4976892;28;20052;-84
2022/01/09 05:55:50;;;;;;;18.90;3.75;;;5.40;99.90;;;;;;4999703;28;20062;-85
2022/01/09 05:58:15;;;;;;;21.58;3.83;;;5.30;99.90;;;;;;4997645;28;20042;-84
2022/01/09 06:00:41;;;;;;;21.27;3.30;;;5.30;99.90;;;;;;4997677;28;20373;-85
2022/01/09 06:03:07;;;;;;;28.60;4.28;;;5.30;99.90;;;;;;5010591;28;20106;-84
2022/01/09 06:05:33;;;;;;;27.17;4.07;;;5.30;99.90;;;;;;5013276;28;20030;-86
2022/01/09 06:07:58;;;;;;;26.13;6.72;;;5.30;99.90;;;;;;5012824;28;20018;-87
2022/01/09 06:10:24;;;;;;;24.77;5.78;;;5.30;99.90;;;;;;4973918;28;20046;-85
2022/01/09 06:12:50;;;;;;;19.02;4.05;;;5.30;99.90;;;;;;4994173;28;20050;-86
2022/01/09 06:15:15;;;;;;;21.75;3.80;;;5.30;99.90;;;;;;5014249;28;20030;-85
2022/01/09 06:17:42;;;;;;;24.42;4.25;;;5.30;99.90;;;;;;5015900;28;20048;-86
2022/01/09 06:20:10;;;;;;;21.30;4.15;;;5.30;99.90;;;;;;5013168;28;20018;-87
2022/01/09 06:22:36;;;;;;;31.05;4.93;;;5.20;99.90;;;;;;4996245;28;20160;-86
2022/01/09 06:25:02;;;;;;;21.35;4.47;;;5.20;99.90;;;;;;5008159;28;20540;-86
2022/01/09 06:27:28;;;;;;;24.83;4.25;;;5.30;99.90;;;;;;5011032;28;20535;-85
2022/01/09 06:29:53;;;;;;;24.67;4.30;;;5.30;99.90;;;;;;5014694;28;20022;-85
2022/01/09 06:32:19;;;;;;;23.30;4.22;;;5.30;99.90;;;;;;4990134;28;20034;-86
2022/01/09 06:34:45;;;;;;;21.73;5.53;;;5.30;99.90;;;;;;5013089;28;20106;-85
2022/01/09 06:37:12;;;;;;;26.80;4.70;;;5.30;99.90;;;;;;5012839;28;20038;-85
2022/01/09 06:39:39;;;;;;;32.10;5.13;;;5.30;99.90;;;;;;4995902;28;20092;-87
2022/01/09 06:42:05;;;;;;;17.90;3.58;;;5.30;99.90;;;;;;4990320;28;20042;-86
2022/01/09 06:44:30;;;;;;;20.42;3.67;;;5.30;99.90;;;;;;4994945;28;20054;-86
2022/01/09 06:46:56;;;;;;;18.23;4.72;;;5.20;99.90;;;;;;4997016;28;20029;-86
2022/01/09 06:49:22;;;;;;;19.42;3.85;;;5.20;99.90;;;;;;4996489;28;20032;-86
2022/01/09 06:51:48;;;;;;;20.83;3.60;;;5.20;99.90;;;;;;4987694;28;20027;-87
2022/01/09 06:54:13;;;;;;;17.02;3.60;;;5.20;99.90;;;;;;4979423;28;20021;-86
2022/01/09 06:56:40;;;;;;;19.75;3.65;;;5.10;99.90;;;;;;5009984;28;21447;-86
2022/01/09 06:59:06;;;;;;;15.63;3.53;;;5.10;99.90;;;;;;4993780;28;20052;-86
2022/01/09 07:01:31;;;;;;;18.70;2.80;;;5.00;99.90;;;;;;4993349;28;20021;-86
2022/01/09 07:03:57;;;;;;;20.40;3.58;;;5.00;99.90;;;;;;4994639;28;20049;-88
2022/01/09 07:06:23;;;;;;;22.30;3.33;;;5.00;99.90;;;;;;5000213;28;20061;-86
2022/01/09 07:08:48;;;;;;;19.77;3.97;;;4.90;99.90;;;;;;4979444;28;20053;-87
2022/01/09 07:11:14;;;;;;;17.70;5.35;;;4.80;99.90;;;;;;4994854;28;20078;-87
2022/01/09 07:13:40;;;;;;;18.25;3.83;;;4.90;99.90;;;;;;5005937;28;20040;-86
2022/01/09 07:16:06;;;;;;;15.43;3.55;;;4.90;99.90;;;;;;4994022;28;20057;-88
2022/01/09 07:18:32;;;;;;;15.75;3.20;;;4.80;99.90;;;;;;4990984;28;20097;-86
2022/01/09 07:20:58;;;;;;;18.27;2.95;;;4.80;99.90;;;;;;5016844;28;20537;-85
2022/01/09 07:23:23;;;;;;;14.57;2.60;;;4.80;99.90;;;;;;4998408;28;20046;-86
2022/01/09 07:25:49;;;;;;;17.05;3.00;;;4.80;99.90;;;;;;4988739;28;20048;-85
2022/01/09 07:28:15;;;;;;;12.77;2.88;;;4.80;99.90;;;;;;4956645;28;20029;-85
2022/01/09 07:30:40;;;;;;;16.83;2.80;;;4.70;99.90;;;;;;4992998;28;20077;-87
2022/01/09 07:33:07;;;;;;;11.23;2.72;;;4.70;99.90;;;;;;4975177;28;20061;-86
2022/01/09 07:35:33;;;;;;;15.63;2.70;;;4.70;99.90;;;;;;5010369;28;20061;-86
2022/01/09 07:37:59;;;;;;;12.05;2.25;;;4.70;99.90;;;;;;5012810;28;20026;-86
2022/01/09 07:40:25;;;;;;;14.05;2.20;;;4.70;99.90;;;;;;5009557;28;20105;-85
2022/01/09 07:42:51;;;;;;;12.98;2.60;;;4.70;99.90;;;;;;4991826;28;20069;-86
2022/01/09 07:45:22;;;;;;;12.18;2.63;;;4.60;99.90;;;;;;5009236;28;20060;-85
2022/01/09 07:47:48;;;;;;;12.40;2.05;;;4.70;99.90;;;;;;5011726;28;20025;-84
2022/01/09 07:50:14;;;;;;;13.70;2.70;;;4.60;99.90;;;;;;5011344;28;20030;-83
2022/01/09 07:52:41;;;;;;;13.70;3.33;;;4.60;99.90;;;;;;5011956;28;20106;-86
2022/01/09 07:55:08;;;;;;;10.52;3.38;;;4.60;99.90;;;;;;4992356;28;20041;-88
2022/01/09 07:57:34;;;;;;;14.13;2.97;;;4.60;99.90;;;;;;5010405;28;20049;-87
2022/01/09 08:00:03;;;;;;;10.45;2.40;;;4.60;99.90;;;;;;5008894;28;20068;-88
2022/01/09 08:02:29;;;;;;;13.52;2.55;;;4.50;99.90;;;;;;4992452;28;20030;-88
2022/01/09 08:04:54;;;;;;;15.80;2.45;;;4.60;99.90;;;;;;4990611;28;20022;-89
2022/01/09 08:07:20;;;;;;;13.70;2.65;;;4.60;99.90;;;;;;5007960;28;20022;-86
2022/01/09 08:09:47;;;;;;;12.55;2.90;;;4.60;99.90;;;;;;4981572;28;20022;-87
2022/01/09 08:12:14;;;;;;;14.93;2.95;;;4.60;99.90;;;;;;5006555;28;20054;-86
2022/01/09 08:14:45;;;;;;;13.07;2.67;;;4.60;99.90;;;;;;5011702;28;20033;-88
2022/01/09 08:17:11;;;;;;;13.10;2.38;;;4.60;99.90;;;;;;5012144;28;20697;-85
2022/01/09 08:19:37;;;;;;;12.20;2.55;;;4.60;99.90;;;;;;4991553;28;20033;-83
2022/01/09 08:22:04;;;;;;;10.65;2.60;;;4.60;99.90;;;;;;5011860;28;20030;-84
2022/01/09 08:24:30;;;;;;;10.35;2.53;;;4.70;99.90;;;;;;5015209;28;20126;-85
2022/01/09 08:26:56;;;;;;;11.15;2.13;;;4.70;99.90;;;;;;5018318;28;20022;-83
2022/01/09 08:29:22;;;;;;;12.75;2.28;;;4.70;99.90;;;;;;5006976;28;20057;-82
2022/01/09 08:31:48;;;;;;;8.55;2.30;;;4.70;99.90;;;;;;4989126;28;20098;-84
2022/01/09 08:34:13;;;;;;;14.65;3.08;;;4.70;99.90;;;;;;5010634;28;20034;-83
2022/01/09 08:36:39;;;;;;;10.23;2.50;;;4.80;99.90;;;;;;5003677;28;20036;-83
2022/01/09 08:39:06;;;;;;;11.27;2.63;;;4.80;99.90;;;;;;5019901;28;20025;-83
2022/01/09 08:41:34;;;;;;;14.02;2.28;;;4.80;99.90;;;;;;5022425;28;20065;-84
2022/01/09 08:44:01;;;;;;;14.10;2.67;;;4.90;99.90;;;;;;5020615;28;20045;-84
2022/01/09 08:46:28;;;;;;;14.65;2.33;;;4.80;99.90;;;;;;5018789;28;20032;-84
2022/01/09 08:48:54;;;;;;;13.18;2.53;;;4.80;99.90;;;;;;5024130;28;20033;-85
2022/01/09 08:51:19;;;;;;;12.52;2.17;;;4.90;99.90;;;;;;5004532;28;20033;-84
2022/01/09 08:53:50;;;;;;;12.93;2.28;;;4.80;99.90;;;;;;5018645;28;20047;-85
2022/01/09 08:56:20;;;;;;;12.07;2.38;;;4.80;99.90;;;;;;5016015;28;20023;-85
2022/01/09 08:58:47;;;;;;;13.57;2.13;;;4.90;99.90;;;;;;5012227;28;20088;-89
2022/01/09 09:01:12;;;;;;;17.10;2.55;;;4.90;99.90;;;;;;5010511;28;20033;-85
2022/01/09 09:03:41;;;;;;;16.23;2.58;;;4.90;99.90;;;;;;4998139;28;20418;-85
2022/01/09 09:06:16;;;;;;;13.07;2.80;;;4.90;99.90;;;;;;4994003;28;20014;-85
2022/01/09 09:08:42;;;;;;;17.50;2.80;;;4.90;99.90;;;;;;4990594;28;20117;-85
2022/01/09 09:11:10;;;;;;;17.27;2.90;;;5.00;99.90;;;;;;5009831;28;20053;-85
2022/01/09 09:13:37;;;;;;;13.95;2.97;;;5.00;99.90;;;;;;5016740;28;20042;-85
2022/01/09 09:16:03;;;;;;;15.85;2.78;;;5.00;99.90;;;;;;5000835;28;20034;-85
2022/01/09 09:18:29;;;;;;;13.18;2.88;;;5.00;99.90;;;;;;4999273;28;20029;-85
2022/01/09 09:20:56;;;;;;;12.43;2.47;;;5.00;99.90;;;;;;4998032;28;20080;-84
2022/01/09 09:23:22;;;;;;;17.13;3.45;;;5.10;99.90;;;;;;4991734;28;20041;-83
2022/01/09 09:25:49;;;;;;;15.80;3.28;;;5.10;99.90;;;;;;5008218;28;20030;-84
2022/01/09 09:28:15;;;;;;;18.77;3.13;;;5.10;99.90;;;;;;5006664;28;20026;-84
2022/01/09 09:30:41;;;;;;;16.00;3.97;;;5.20;99.90;;;;;;4999065;28;20510;-84
2022/01/09 09:33:06;;;;;;;14.43;2.90;;;5.20;99.90;;;;;;5006979;28;20061;-84
2022/01/09 09:35:33;;;;;;;15.77;3.40;;;5.20;99.90;;;;;;5014722;28;20030;-84
2022/01/09 09:37:59;;;;;;;12.45;2.47;;;5.20;99.90;;;;;;4991856;28;20694;-83
2022/01/09 09:40:28;;;;;;;15.90;3.00;;;5.30;99.90;;;;;;5008396;28;20027;-85
2022/01/09 09:42:53;;;;;;;19.27;2.97;;;5.30;99.90;;;;;;5007207;28;20042;-85
2022/01/09 09:45:20;;;;;;;16.65;2.85;;;5.30;99.90;;;;;;5007851;28;20124;-85
2022/01/09 09:47:46;;;;;;;14.30;2.60;;;5.30;99.90;;;;;;5005317;28;20064;-84
2022/01/09 09:50:15;;;;;;;14.52;2.60;;;5.40;99.90;;;;;;4990001;28;20434;-84
2022/01/09 09:52:46;;;;;;;11.43;2.25;;;5.40;99.90;;;;;;5005563;28;20057;-84
2022/01/09 09:55:13;;;;;;;12.63;2.20;;;5.40;99.90;;;;;;5010235;28;20044;-83
2022/01/09 09:57:39;;;;;;;9.70;2.22;;;5.40;99.90;;;;;;5007077;28;20028;-84
2022/01/09 10:00:17;;;;;;;9.68;1.83;;;5.50;99.90;;;;;;5012206;28;20026;-85
2022/01/09 10:02:58;;;;;;;9.38;2.38;;;5.50;99.90;;;;;;5013000;28;20056;-84
2022/01/09 10:05:26;;;;;;;11.07;2.05;;;5.50;99.90;;;;;;5004874;28;20041;-84
2022/01/09 10:07:53;;;;;;;11.43;1.80;;;5.60;99.90;;;;;;5017542;28;20033;-85
2022/01/09 10:10:28;;;;;;;8.10;1.70;;;5.60;99.90;;;;;;5017958;28;20038;-85
2022/01/09 10:13:08;;;;;;;11.07;2.33;;;5.60;99.90;;;;;;5001953;28;20034;-83
2022/01/09 10:15:45;;;;;;;10.25;2.38;;;5.60;99.90;;;;;;4997898;28;20450;-85
2022/01/09 10:18:11;;;;;;;13.63;1.80;;;5.60;99.90;;;;;;5016811;28;20018;-85
2022/01/09 10:20:36;;;;;;;8.00;1.55;;;5.70;99.90;;;;;;4989754;28;20113;-84
2022/01/09 10:23:02;;;;;;;10.20;1.88;;;5.70;99.90;;;;;;5001436;28;20042;-85
2022/01/09 10:25:37;;;;;;;11.95;2.10;;;5.70;99.90;;;;;;4989058;28;20048;-86
2022/01/09 10:28:04;;;;;;;9.63;1.75;;;5.70;99.90;;;;;;5012215;28;20030;-85
2022/01/09 10:30:45;;;;;;;13.23;1.70;;;5.80;99.90;;;;;;5012259;28;20398;-85
2022/01/09 10:33:16;;;;;;;12.38;3.05;;;5.70;99.90;;;;;;5019396;28;20026;-86
2022/01/09 10:35:45;;;;;;;10.40;3.10;;;5.80;99.90;;;;;;5019607;28;20049;-85
2022/01/09 10:38:16;;;;;;;8.02;1.73;;;5.80;99.90;;;;;;5020695;28;20017;-85
2022/01/09 10:40:46;;;;;;;7.72;1.52;;;5.90;99.90;;;;;;5020732;28;20026;-84
2022/01/09 10:43:20;;;;;;;7.50;1.98;;;5.90;99.90;;;;;;5020037;28;20092;-84
2022/01/09 10:45:58;;;;;;;8.13;1.63;;;5.90;99.90;;;;;;5019470;28;20061;-85
2022/01/09 10:48:26;;;;;;;6.85;1.45;;;5.90;99.90;;;;;;5020085;28;20026;-85
2022/01/09 10:50:53;;;;;;;9.55;2.03;;;5.90;99.90;;;;;;5020272;28;20089;-84
2022/01/09 10:53:31;;;;;;;10.20;1.48;;;6.00;99.90;;;;;;5002583;28;20037;-85
2022/01/09 10:56:20;;;;;;;9.90;1.60;;;6.10;99.90;;;;;;5019855;28;20026;-84
2022/01/09 10:58:51;;;;;;;8.82;1.70;;;6.20;99.90;;;;;;5020959;28;20029;-85
2022/01/09 11:01:23;;;;;;;14.00;2.63;;;6.30;99.90;;;;;;4999976;28;20045;-85
2022/01/09 11:03:57;;;;;;;14.27;2.13;;;6.40;99.90;;;;;;5001882;28;20131;-84
2022/01/09 11:06:26;;;;;;;10.77;2.42;;;6.40;99.90;;;;;;5020143;28;20018;-84
2022/01/09 11:08:53;;;;;;;16.83;4.25;;;6.50;99.90;;;;;;5000429;28;20054;-85
2022/01/09 11:13:47;;;;;;;10.48;1.92;;;6.60;99.90;;;;;;5001523;28;20130;-84
2022/01/09 11:19:18;;;;;;;11.20;1.88;;;6.80;99.90;;;;;;5019859;28;20092;-84
2022/01/09 11:21:55;;;;;;;10.43;2.67;;;6.80;99.90;;;;;;5017637;28;20529;-84
2022/01/09 11:24:42;;;;;;;11.40;2.28;;;6.90;99.90;;;;;;5003264;28;20501;-84
2022/01/09 11:27:22;;;;;;;11.88;2.30;;;7.00;99.90;;;;;;5000998;28;20405;-84
2022/01/09 11:30:19;;;;;;;12.43;2.40;;;7.00;99.90;;;;;;5001132;28;20030;-84
2022/01/09 11:33:04;;;;;;;15.38;2.33;;;7.00;99.90;;;;;;5001171;28;20429;-85
2022/01/09 11:36:23;;;;;;;10.73;2.17;;;7.00;99.90;;;;;;4999933;28;20030;-85
2022/01/09 11:39:23;;;;;;;11.95;2.97;;;7.00;99.90;;;;;;4921224;29;20036;-85
2022/01/09 11:42:14;;;;;;;16.25;2.70;;;7.10;99.90;;;;;;4931851;29;20028;-85
2022/01/09 11:44:55;;;;;;;20.15;3.03;;;7.10;99.90;;;;;;5011358;28;20062;-83
2022/01/09 11:47:23;;;;;;;13.60;2.90;;;7.10;99.90;;;;;;5017604;28;20088;-83
2022/01/09 11:49:55;;;;;;;14.23;3.17;;;7.10;99.90;;;;;;5010407;28;20030;-83
2022/01/09 11:52:27;;;;;;;15.38;3.03;;;7.00;99.90;;;;;;5005928;28;20033;-83
2022/01/09 11:54:58;;;;;;;;;;;7.00;99.90;;;;;;4998387;28;20136;-82
2022/01/09 11:57:44;;;;;;;11.18;2.67;;;7.00;99.90;;;;;;5002687;28;20405;-83
2022/01/09 12:00:31;;;;;;;16.05;2.80;;;7.10;99.90;;;;;;5014880;28;20097;-83
2022/01/09 12:02:58;;;;;;;15.88;2.97;;;7.10;99.90;;;;;;5026988;28;20110;-83
2022/01/09 12:05:24;;;;;;;13.82;2.78;;;7.20;99.90;;;;;;5017779;28;20243;-83
2022/01/09 12:07:53;;;;;;;19.02;3.33;;;7.20;99.90;;;;;;5019363;28;20588;-83
2022/01/09 12:10:35;;;;;;;23.05;3.50;;;7.40;99.90;;;;;;4991176;28;20102;-83
2022/01/09 12:13:02;;;;;;;11.63;3.05;;;7.40;99.90;;;;;;4993972;28;20105;-84
2022/01/09 12:15:39;;;;;;;19.88;4.65;;;7.40;99.90;;;;;;5024226;28;20025;-83
2022/01/09 12:18:07;;;;;;;16.88;3.38;;;7.30;99.90;;;;;;4983749;28;20026;-83
2022/01/09 12:20:39;;;;;;;17.58;3.25;;;7.30;99.90;;;;;;4963429;28;20030;-82
2022/01/09 12:23:07;;;;;;;14.32;3.20;;;7.20;99.90;;;;;;5017459;28;20049;-83
2022/01/09 12:25:36;;;;;;;16.98;2.88;;;7.20;99.90;;;;;;4992205;28;20367;-83
2022/01/09 12:28:26;;;;;;;14.73;3.53;;;7.20;99.90;;;;;;5002447;28;20033;-80
2022/01/09 12:30:58;;;;;;;11.57;3.08;;;7.30;99.90;;;;;;5026163;28;20030;-80
2022/01/09 12:33:31;;;;;;;10.48;2.60;;;7.30;99.90;;;;;;5018703;28;20036;-80
2022/01/09 12:36:02;;;;;;;16.35;2.92;;;7.30;99.90;;;;;;5013551;28;20037;-81
2022/01/09 12:38:29;;;;;;;20.65;3.10;;;7.50;99.90;;;;;;5000400;28;20046;-81
2022/01/09 12:41:00;;;;;;;19.85;3.42;;;7.60;99.90;;;;;;5020181;28;20030;-80
2022/01/09 12:43:27;;;;;;;13.43;2.78;;;7.70;99.90;;;;;;5014936;28;20064;-81
2022/01/09 12:45:53;;;;;;;12.00;3.05;;;7.80;99.90;;;;;;5014747;28;20112;-81
2022/01/09 12:48:29;;;;;;;14.48;2.95;;;8.00;99.90;;;;;;4995057;28;20038;-81
2022/01/09 12:51:05;;;;;;;12.68;2.10;;;7.90;99.90;;;;;;5020096;28;20041;-81
2022/01/09 12:53:37;;;;;;;15.27;2.85;;;7.80;99.90;;;;;;5000241;28;20034;-81
2022/01/09 12:56:05;;;;;;;17.90;3.13;;;7.60;99.90;;;;;;5017841;28;20053;-82
2022/01/09 12:58:57;;;;;;;15.88;2.95;;;7.50;99.90;;;;;;5019926;28;20037;-83
2022/01/09 13:01:32;;;;;;;14.35;2.30;;;7.60;99.90;;;;;;4996626;28;20034;-82